createdAt,value
2018-01-26T00:02:05.382Z,4.50
2018-01-26T00:04:32.914Z,5.93
2018-01-26T00:07:00.450Z,6.07
2018-01-26T00:09:28.700Z,5.70
2018-01-26T00:11:56.190Z,5.60
2018-01-26T00:14:23.698Z,6.40
2018-01-26T00:16:51.175Z,7.17
2018-01-26T00:19:18.795Z,7.27
2018-01-26T00:21:46.238Z,7.00
2018-01-26T00:24:13.741Z,7.20
2018-01-26T00:26:41.244Z,7.40
2018-01-26T00:29:08.790Z,6.73
2018-01-26T00:31:36.316Z,6.60
2018-01-26T00:34:03.899Z,6.80
2018-01-26T00:36:32.127Z,6.90
2018-01-26T00:38:59.879Z,6.80
2018-01-26T00:41:27.361Z,7.07
2018-01-26T00:43:54.841Z,7.47
2018-01-26T00:46:22.429Z,7.60
2018-01-26T00:48:50.737Z,7.50
2018-01-26T00:51:18.215Z,6.73
2018-01-26T00:53:45.808Z,7.07
2018-01-26T00:56:13.497Z,7.53
2018-01-26T00:58:41.759Z,8.07
2018-01-26T01:01:09.274Z,7.90
2018-01-26T01:03:36.739Z,7.90
2018-01-26T01:06:04.243Z,7.80
2018-01-26T01:08:31.816Z,8.37
2018-01-26T01:11:00.149Z,8.20
2018-01-26T01:13:27.635Z,8.20
2018-01-26T01:15:55.083Z,7.40
2018-01-26T01:18:23.388Z,8.80
2018-01-26T01:20:50.891Z,8.40
2018-01-26T01:23:19.269Z,8.27
2018-01-26T01:25:46.730Z,8.17
2018-01-26T01:28:14.319Z,8.80
2018-01-26T01:30:41.841Z,8.20
2018-01-26T01:33:09.354Z,8.70
2018-01-26T01:35:37.819Z,8.77
2018-01-26T01:38:06.116Z,8.53
2018-01-26T01:40:33.617Z,9.80
2018-01-26T01:43:01.118Z,9.73
2018-01-26T01:45:28.778Z,9.17
2018-01-26T01:47:57.073Z,9.60
2018-01-26T01:50:25.339Z,9.07
2018-01-26T01:52:52.950Z,9.40
2018-01-26T01:55:20.472Z,10.13
2018-01-26T01:57:48.856Z,8.23
2018-01-26T02:00:17.121Z,9.23
2018-01-26T02:02:45.414Z,9.93
2018-01-26T02:05:13.052Z,9.50
2018-01-26T02:07:41.333Z,8.77
2018-01-26T02:10:09.656Z,9.57
2018-01-26T02:12:37.171Z,9.10
2018-01-26T02:15:05.436Z,8.50
2018-01-26T02:17:32.910Z,9.43
2018-01-26T02:20:01.222Z,9.47
2018-01-26T02:22:28.703Z,9.40
2018-01-26T02:24:56.295Z,9.57
2018-01-26T02:27:23.812Z,9.57
2018-01-26T02:29:51.306Z,14.77
2018-01-26T02:32:18.813Z,12.87
2018-01-26T02:34:46.295Z,10.13
2018-01-26T02:37:13.791Z,10.50
2018-01-26T02:39:41.266Z,10.40
2018-01-26T02:42:09.635Z,10.97
2018-01-26T02:44:37.950Z,10.37
2018-01-26T02:47:05.475Z,11.03
2018-01-26T02:49:33.752Z,10.30
2018-01-26T02:52:01.986Z,11.60
2018-01-26T02:54:29.523Z,11.90
2018-01-26T02:56:57.031Z,10.97
2018-01-26T02:59:24.639Z,11.57
2018-01-26T03:01:52.181Z,10.80
2018-01-26T03:04:19.610Z,11.40
2018-01-26T03:06:47.174Z,12.13
2018-01-26T03:09:14.734Z,12.20
2018-01-26T03:11:42.205Z,10.57
2018-01-26T03:14:10.524Z,11.40
2018-01-26T03:16:38.446Z,12.00
2018-01-26T03:19:05.907Z,11.17
2018-01-26T03:21:34.215Z,12.77
2018-01-26T03:24:01.744Z,12.13
2018-01-26T03:26:30.161Z,12.60
2018-01-26T03:28:57.702Z,11.93
2018-01-26T03:31:26.057Z,12.77
2018-01-26T03:33:53.571Z,13.00
2018-01-26T03:36:21.134Z,12.40
2018-01-26T03:38:48.650Z,12.67
2018-01-26T03:41:16.908Z,13.80
2018-01-26T03:43:45.159Z,12.93
2018-01-26T03:46:12.638Z,12.67
2018-01-26T03:48:40.192Z,12.43
2018-01-26T03:51:07.827Z,12.03
2018-01-26T03:53:35.322Z,11.60
2018-01-26T03:56:02.888Z,12.50
2018-01-26T03:58:31.226Z,13.30
2018-01-26T04:00:58.778Z,14.10
2018-01-26T04:03:26.285Z,13.00
2018-01-26T04:05:53.791Z,13.00
2018-01-26T04:08:21.275Z,13.70
2018-01-26T04:10:48.774Z,12.90
2018-01-26T04:13:17.035Z,13.40
2018-01-26T04:15:44.551Z,12.77
2018-01-26T04:18:12.083Z,12.00
2018-01-26T04:20:40.381Z,13.53
2018-01-26T04:23:07.878Z,13.77
2018-01-26T04:25:35.383Z,14.80
2018-01-26T04:28:02.945Z,14.20
2018-01-26T04:30:31.175Z,14.17
2018-01-26T04:32:58.647Z,15.10
2018-01-26T04:35:26.176Z,14.53
2018-01-26T04:37:53.637Z,14.80
2018-01-26T04:40:21.229Z,13.40
2018-01-26T04:42:49.713Z,15.17
2018-01-26T04:45:17.201Z,14.40
2018-01-26T04:47:44.673Z,14.47
2018-01-26T04:50:12.216Z,16.03
2018-01-26T04:52:39.667Z,12.30
2018-01-26T04:55:07.258Z,15.27
2018-01-26T04:57:34.858Z,15.40
2018-01-26T05:00:02.325Z,15.53
2018-01-26T05:02:29.807Z,15.53
2018-01-26T05:04:58.167Z,13.37
2018-01-26T05:07:25.673Z,15.20
2018-01-26T05:09:53.188Z,14.40
2018-01-26T05:12:21.467Z,15.17
2018-01-26T05:14:49.712Z,15.40
2018-01-26T05:17:17.171Z,15.13
2018-01-26T05:19:44.707Z,15.83
2018-01-26T05:22:12.211Z,15.40
2018-01-26T05:24:40.442Z,15.53
2018-01-26T05:27:07.942Z,15.93
2018-01-26T05:29:36.872Z,15.60
2018-01-26T05:32:04.414Z,15.37
2018-01-26T05:34:32.705Z,15.33
2018-01-26T05:37:00.928Z,14.60
2018-01-26T05:39:28.411Z,14.50
2018-01-26T05:41:56.691Z,19.53
2018-01-26T05:44:24.159Z,16.47
2018-01-26T05:46:51.749Z,15.43
2018-01-26T05:49:19.985Z,15.90
2018-01-26T05:51:47.447Z,15.20
2018-01-26T05:54:15.724Z,15.13
2018-01-26T05:56:44.091Z,15.10
2018-01-26T05:59:11.669Z,15.80
2018-01-26T06:01:39.267Z,16.37
2018-01-26T06:04:06.767Z,15.23
2018-01-26T06:06:34.298Z,15.80
2018-01-26T06:09:01.792Z,17.80
2018-01-26T06:11:29.266Z,15.77
2018-01-26T06:13:57.503Z,15.47
2018-01-26T06:16:25.034Z,16.77
2018-01-26T06:18:52.598Z,16.30
2018-01-26T06:21:20.100Z,15.83
2018-01-26T06:23:47.579Z,15.87
2018-01-26T06:26:16.008Z,17.93
2018-01-26T06:28:43.465Z,17.17
2018-01-26T06:31:10.943Z,15.10
2018-01-26T06:33:38.450Z,16.27
2018-01-26T06:36:06.807Z,14.80
2018-01-26T06:38:34.260Z,15.93
2018-01-26T06:41:02.567Z,17.97
2018-01-26T06:43:30.890Z,15.90
2018-01-26T06:45:58.402Z,15.37
2018-01-26T06:48:26.654Z,16.33
2018-01-26T06:50:54.160Z,15.73
2018-01-26T06:53:21.642Z,15.80
2018-01-26T06:55:49.160Z,17.00
2018-01-26T06:58:17.484Z,16.97
2018-01-26T07:00:45.038Z,16.73
2018-01-26T07:03:12.538Z,16.07
2018-01-26T07:05:40.075Z,17.53
2018-01-26T07:08:07.541Z,17.17
2018-01-26T07:10:35.831Z,15.90
2018-01-26T07:13:03.287Z,16.20
2018-01-26T07:15:30.787Z,16.87
2018-01-26T07:17:58.378Z,42.53
2018-01-26T07:20:25.827Z,17.23
2018-01-26T07:22:53.283Z,18.27
2018-01-26T07:25:20.767Z,16.50
2018-01-26T07:27:48.215Z,17.40
2018-01-26T07:30:15.756Z,17.00
2018-01-26T07:32:43.347Z,16.80
2018-01-26T07:35:10.810Z,17.23
2018-01-26T07:37:38.279Z,17.30
2018-01-26T07:40:06.526Z,15.90
2018-01-26T07:42:34.027Z,16.33
2018-01-26T07:45:02.255Z,15.70
2018-01-26T07:47:29.739Z,16.10
2018-01-26T07:49:57.278Z,14.93
2018-01-26T07:52:24.753Z,15.80
2018-01-26T07:54:52.290Z,16.90
2018-01-26T07:57:19.775Z,17.40
2018-01-26T07:59:47.241Z,14.83
2018-01-26T08:02:14.751Z,17.53
2018-01-26T08:04:42.206Z,15.60
2018-01-26T08:07:09.665Z,15.77
2018-01-26T08:09:37.188Z,16.13
2018-01-26T08:12:05.407Z,15.33
2018-01-26T08:14:32.899Z,14.40
2018-01-26T08:17:00.503Z,16.70
2018-01-26T08:19:28.720Z,14.53
2018-01-26T08:21:56.200Z,14.30
2018-01-26T08:24:23.902Z,14.83
2018-01-26T08:26:51.375Z,15.20
2018-01-26T08:29:18.875Z,14.53
2018-01-26T08:31:46.359Z,14.43
2018-01-26T08:34:14.639Z,13.27
2018-01-26T08:36:42.123Z,14.33
2018-01-26T08:39:09.622Z,13.87
2018-01-26T08:41:37.076Z,15.40
2018-01-26T08:44:04.577Z,15.07
2018-01-26T08:46:32.097Z,15.40
2018-01-26T08:48:59.563Z,14.97
2018-01-26T08:51:27.019Z,14.90
2018-01-26T08:53:54.505Z,14.53
2018-01-26T08:56:22.706Z,14.00
2018-01-26T08:58:50.161Z,14.40
2018-01-26T09:01:17.658Z,14.67
2018-01-26T09:03:45.108Z,14.10
2018-01-26T09:06:12.576Z,14.57
2018-01-26T09:08:40.067Z,14.70
2018-01-26T09:11:08.493Z,15.73
2018-01-26T09:13:36.067Z,15.47
2018-01-26T09:16:03.577Z,14.63
2018-01-26T09:18:31.907Z,13.80
2018-01-26T09:20:59.401Z,14.50
2018-01-26T09:23:27.679Z,13.63
2018-01-26T09:25:55.915Z,14.23
2018-01-26T09:28:23.402Z,14.90
2018-01-26T09:30:51.774Z,15.30
2018-01-26T09:33:19.246Z,13.40
2018-01-26T09:35:46.716Z,13.20
2018-01-26T09:38:15.033Z,14.20
2018-01-26T09:40:42.534Z,15.30
2018-01-26T09:43:10.204Z,14.40
2018-01-26T09:45:38.482Z,13.43
2018-01-26T09:48:06.737Z,14.70
2018-01-26T09:50:34.305Z,14.40
2018-01-26T09:53:01.784Z,13.60
2018-01-26T09:55:30.057Z,14.20
2018-01-26T09:57:57.503Z,15.70
2018-01-26T10:00:25.751Z,14.70
2018-01-26T10:02:53.547Z,15.57
2018-01-26T10:05:21.006Z,14.03
2018-01-26T10:07:49.277Z,13.73
2018-01-26T10:10:16.746Z,15.03
2018-01-26T10:12:44.208Z,14.77
2018-01-26T10:15:11.744Z,16.00
2018-01-26T10:17:39.201Z,15.93
2018-01-26T10:20:06.756Z,13.23
2018-01-26T10:22:34.243Z,12.67
2018-01-26T10:25:02.483Z,14.43
2018-01-26T10:27:29.967Z,12.77
2018-01-26T10:29:57.499Z,13.27
2018-01-26T10:32:24.989Z,13.37
2018-01-26T10:34:52.557Z,13.13
2018-01-26T10:37:20.086Z,12.40
2018-01-26T10:39:47.579Z,12.97
2018-01-26T10:42:15.843Z,13.80
2018-01-26T10:44:43.765Z,14.43
2018-01-26T10:47:11.263Z,13.20
2018-01-26T10:49:38.728Z,12.97
2018-01-26T10:52:07.048Z,13.60
2018-01-26T10:54:34.536Z,13.07
2018-01-26T10:57:02.165Z,14.20
2018-01-26T10:59:29.651Z,14.33
2018-01-26T11:01:57.174Z,14.10
2018-01-26T11:04:25.399Z,14.87
2018-01-26T11:06:52.880Z,14.10
2018-01-26T11:09:20.338Z,14.47
2018-01-26T11:11:47.795Z,17.17
2018-01-26T11:14:15.322Z,16.13
2018-01-26T11:16:42.782Z,17.10
2018-01-26T11:19:10.266Z,14.13
2018-01-26T11:21:37.807Z,13.93
2018-01-26T11:24:05.303Z,14.37
2018-01-26T11:26:33.571Z,14.33
2018-01-26T11:29:01.044Z,16.03
2018-01-26T11:31:29.268Z,16.70
2018-01-26T11:33:56.751Z,13.90
2018-01-26T11:36:24.266Z,13.50
2018-01-26T11:38:51.743Z,13.80
2018-01-26T11:41:19.209Z,14.10
2018-01-26T11:43:46.804Z,14.13
2018-01-26T11:46:14.311Z,14.37
2018-01-26T11:48:41.817Z,12.97
2018-01-26T11:51:09.421Z,13.60
2018-01-26T11:53:36.886Z,13.10
2018-01-26T11:56:04.359Z,11.33
2018-01-26T11:58:31.907Z,10.57
2018-01-26T12:00:59.437Z,9.80
2018-01-26T12:03:26.899Z,12.10
2018-01-26T12:05:54.440Z,11.30
2018-01-26T12:08:22.728Z,11.80
2018-01-26T12:10:51.143Z,11.83
2018-01-26T12:13:18.739Z,12.80
2018-01-26T12:15:46.208Z,11.43
2018-01-26T12:18:13.782Z,11.57
2018-01-26T12:20:42.299Z,9.97
2018-01-26T12:23:09.956Z,12.43
2018-01-26T12:25:37.437Z,13.00
2018-01-26T12:28:04.925Z,13.07
2018-01-26T12:30:32.379Z,10.80
2018-01-26T12:33:00.101Z,9.70
2018-01-26T12:35:27.607Z,11.23
2018-01-26T12:37:55.273Z,9.60
2018-01-26T12:40:22.788Z,9.30
2018-01-26T12:42:50.324Z,8.93
2018-01-26T12:45:18.107Z,9.40
2018-01-26T12:47:45.600Z,8.70
2018-01-26T12:50:13.144Z,8.80
2018-01-26T12:52:40.661Z,8.80
2018-01-26T12:55:08.302Z,8.53
2018-01-26T12:57:36.620Z,8.90
2018-01-26T13:00:04.137Z,10.90
2018-01-26T13:02:31.738Z,9.00
2018-01-26T13:04:59.587Z,9.53
2018-01-26T13:07:28.955Z,10.73
2018-01-26T13:09:57.102Z,10.03
2018-01-26T13:12:24.628Z,10.30
2018-01-26T13:14:52.890Z,10.00
2018-01-26T13:17:21.810Z,10.60
2018-01-26T13:19:49.305Z,10.60
2018-01-26T13:22:16.935Z,10.87
2018-01-26T13:24:44.448Z,10.73
2018-01-26T13:27:12.582Z,12.40
2018-01-26T13:29:40.059Z,11.07
2018-01-26T13:32:07.548Z,10.40
2018-01-26T13:34:35.095Z,11.10
2018-01-26T13:37:02.571Z,10.60
2018-01-26T13:39:30.821Z,11.80
2018-01-26T13:41:58.372Z,11.70
2018-01-26T13:44:25.866Z,11.30
2018-01-26T13:46:54.147Z,11.17
2018-01-26T13:49:22.562Z,12.60
2018-01-26T13:51:50.347Z,12.23
2018-01-26T13:54:17.915Z,11.63
2018-01-26T13:56:45.459Z,13.60
2018-01-26T13:59:12.979Z,11.60
2018-01-26T14:01:41.236Z,12.30
2018-01-26T14:04:09.509Z,12.30
2018-01-26T14:06:37.071Z,13.00
2018-01-26T14:09:04.532Z,12.87
2018-01-26T14:11:32.094Z,12.23
2018-01-26T14:13:59.558Z,14.33
2018-01-26T14:16:27.795Z,12.27
2018-01-26T14:18:55.299Z,13.70
2018-01-26T14:21:23.545Z,13.57
2018-01-26T14:23:51.063Z,13.83
2018-01-26T14:26:18.590Z,14.13
2018-01-26T14:28:46.860Z,16.47
2018-01-26T14:31:15.111Z,13.80
2018-01-26T14:33:42.592Z,15.57
2018-01-26T14:36:10.049Z,14.47
2018-01-26T14:38:37.504Z,15.90
2018-01-26T14:41:04.973Z,16.40
2018-01-26T14:43:33.219Z,16.87
2018-01-26T14:46:00.802Z,15.83
2018-01-26T14:48:28.267Z,16.10
2018-01-26T14:50:56.520Z,14.90
2018-01-26T14:53:24.007Z,16.27
2018-01-26T14:55:52.280Z,16.83
2018-01-26T14:58:20.515Z,15.70
2018-01-26T15:00:47.977Z,17.47
2018-01-26T15:03:15.514Z,15.20
2018-01-26T15:05:42.985Z,16.57
2018-01-26T15:08:10.461Z,17.10
2018-01-26T15:10:37.935Z,15.77
2018-01-26T15:13:05.411Z,17.67
2018-01-26T15:15:33.765Z,16.13
2018-01-26T15:18:01.246Z,14.67
2018-01-26T15:20:29.523Z,14.17
2018-01-26T15:22:57.029Z,12.37
2018-01-26T15:25:24.503Z,11.20
2018-01-26T15:27:51.989Z,12.10
2018-01-26T15:30:19.520Z,12.23
2018-01-26T15:32:47.004Z,12.50
2018-01-26T15:35:14.473Z,10.80
2018-01-26T15:37:41.943Z,10.63
2018-01-26T15:40:10.197Z,11.83
2018-01-26T15:42:37.651Z,11.60
2018-01-26T15:45:05.187Z,11.20
2018-01-26T15:47:32.663Z,10.90
2018-01-26T15:50:00.139Z,10.73
2018-01-26T15:52:27.643Z,10.97
2018-01-26T15:54:55.123Z,11.80
2018-01-26T15:57:22.560Z,10.30
2018-01-26T15:59:50.115Z,9.60
2018-01-26T16:02:17.614Z,10.40
2018-01-26T16:04:45.088Z,10.70
2018-01-26T16:07:12.571Z,9.70
2018-01-26T16:09:40.825Z,14.50
2018-01-26T16:12:08.282Z,13.37
2018-01-26T16:14:35.723Z,11.40
2018-01-26T16:17:03.194Z,10.57
2018-01-26T16:19:30.688Z,11.63
2018-01-26T16:21:58.887Z,12.00
2018-01-26T16:24:26.386Z,12.23
2018-01-26T16:26:53.835Z,10.33
2018-01-26T16:29:21.382Z,10.70
2018-01-26T16:31:48.835Z,11.70
2018-01-26T16:34:16.315Z,11.53
2018-01-26T16:36:43.777Z,10.57
2018-01-26T16:39:11.271Z,13.10
2018-01-26T16:41:38.726Z,13.13
2018-01-26T16:44:06.210Z,14.03
2018-01-26T16:46:33.971Z,21.57
2018-01-26T16:49:01.443Z,38.23
2018-01-26T16:51:28.931Z,16.87
2018-01-26T16:53:56.392Z,14.83
2018-01-26T16:56:24.005Z,16.03
2018-01-26T16:58:51.478Z,14.90
2018-01-26T17:01:18.987Z,15.20
2018-01-26T17:03:47.221Z,14.10
2018-01-26T17:06:14.755Z,13.23
2018-01-26T17:08:42.226Z,12.70
2018-01-26T17:11:09.683Z,15.30
2018-01-26T17:13:37.233Z,16.17
2018-01-26T17:16:04.950Z,19.00
2018-01-26T17:18:32.431Z,13.90
2018-01-26T17:21:00.690Z,12.60
2018-01-26T17:23:28.941Z,13.13
2018-01-26T17:25:56.396Z,12.80
2018-01-26T17:28:23.890Z,11.80
2018-01-26T17:30:52.328Z,13.70
2018-01-26T17:33:19.841Z,13.57
2018-01-26T17:35:48.080Z,15.03
2018-01-26T17:38:16.865Z,13.90
2018-01-26T17:40:44.326Z,13.57
2018-01-26T17:43:11.788Z,15.50
2018-01-26T17:45:39.266Z,13.33
2018-01-26T17:48:07.485Z,14.17
2018-01-26T17:50:34.986Z,13.70
2018-01-26T17:53:02.660Z,14.50
2018-01-26T17:55:30.883Z,13.07
2018-01-26T17:57:58.443Z,15.13
2018-01-26T18:00:25.923Z,15.10
2018-01-26T18:02:53.393Z,17.07
2018-01-26T18:05:20.882Z,15.97
2018-01-26T18:07:49.147Z,16.80
2018-01-26T18:10:16.615Z,16.97
2018-01-26T18:12:44.853Z,16.70
2018-01-26T18:15:12.407Z,15.93
2018-01-26T18:17:39.900Z,16.77
2018-01-26T18:20:07.370Z,16.67
2018-01-26T18:22:34.979Z,16.13
2018-01-26T18:25:02.462Z,17.30
2018-01-26T18:27:29.930Z,15.97
2018-01-26T18:29:57.471Z,18.70
2018-01-26T18:32:25.057Z,19.27
2018-01-26T18:34:52.926Z,17.30
2018-01-26T18:37:20.969Z,17.80
2018-01-26T18:39:48.723Z,19.07
2018-01-26T18:42:16.235Z,19.63
2018-01-26T18:44:44.495Z,18.83
2018-01-26T18:47:11.951Z,18.70
2018-01-26T18:49:39.517Z,16.07
2018-01-26T18:52:07.467Z,18.77
2018-01-26T18:54:35.357Z,18.30
2018-01-26T18:57:03.067Z,18.70
2018-01-26T18:59:30.731Z,19.37
2018-01-26T19:01:58.264Z,18.77
2018-01-26T19:04:25.702Z,20.07
2018-01-26T19:06:53.820Z,19.13
2018-01-26T19:09:21.343Z,18.97
2018-01-26T19:11:49.665Z,20.20
2018-01-26T19:14:17.226Z,20.73
2018-01-26T19:16:44.710Z,18.43
2018-01-26T19:19:12.373Z,18.83
2018-01-26T19:21:39.846Z,18.20
2018-01-26T19:24:07.394Z,22.13
2018-01-26T19:26:36.094Z,19.23
2018-01-26T19:29:03.655Z,17.50
2018-01-26T19:31:31.416Z,18.03
2018-01-26T19:33:59.136Z,17.40
2018-01-26T19:36:26.718Z,18.40
2018-01-26T19:38:54.948Z,19.27
2018-01-26T19:41:23.757Z,20.40
2018-01-26T19:43:51.250Z,20.50
2018-01-26T19:46:18.806Z,19.87
2018-01-26T19:48:46.371Z,20.73
2018-01-26T19:51:14.058Z,20.63
2018-01-26T19:53:43.061Z,18.63
2018-01-26T19:56:11.134Z,20.37
2018-01-26T19:58:40.092Z,19.23
2018-01-26T20:01:07.751Z,20.30
2018-01-26T20:03:35.293Z,20.70
2018-01-26T20:06:21.341Z,21.47
2018-01-26T20:08:54.979Z,21.90
2018-01-26T20:11:22.663Z,21.13
2018-01-26T20:13:50.464Z,20.57
2018-01-26T20:16:18.033Z,21.83
2018-01-26T20:18:46.532Z,21.33
2018-01-26T20:21:14.088Z,21.80
2018-01-26T20:23:42.435Z,21.73
2018-01-26T20:26:10.119Z,23.20
2018-01-26T20:28:38.467Z,27.37
2018-01-26T20:31:05.996Z,23.40
2018-01-26T20:33:34.030Z,26.10
2018-01-26T20:36:02.558Z,22.37
2018-01-26T20:38:30.035Z,22.47
2018-01-26T20:40:57.822Z,26.37
2018-01-26T20:43:25.528Z,22.13
2018-01-26T20:45:53.093Z,22.47
2018-01-26T20:48:20.968Z,22.77
2018-01-26T20:50:48.586Z,22.67
2018-01-26T20:53:16.098Z,22.47
2018-01-26T20:55:44.445Z,23.00
2018-01-26T20:58:12.548Z,24.30
2018-01-26T21:00:40.035Z,26.07
2018-01-26T21:03:07.628Z,32.50
2018-01-26T21:05:35.932Z,24.43
2018-01-26T21:08:03.503Z,24.30
2018-01-26T21:10:31.489Z,26.07
2018-01-26T21:13:02.313Z,24.60
2018-01-26T21:15:31.166Z,25.50
2018-01-26T21:18:00.105Z,30.67
2018-01-26T21:20:30.065Z,26.37
2018-01-26T21:22:59.768Z,24.33
2018-01-26T21:25:29.443Z,26.17
2018-01-26T21:28:00.788Z,25.77
2018-01-26T21:30:30.225Z,23.57
2018-01-26T21:32:59.748Z,21.93
2018-01-26T21:35:31.283Z,23.90
2018-01-26T21:37:59.892Z,24.83
2018-01-26T21:40:29.958Z,25.83
2018-01-26T21:42:58.975Z,22.60
2018-01-26T21:45:26.515Z,24.63
2018-01-26T21:47:55.492Z,24.43
2018-01-26T21:50:23.041Z,24.17
2018-01-26T21:52:50.625Z,24.37
2018-01-26T21:55:18.119Z,23.47
2018-01-26T21:57:45.831Z,23.83
2018-01-26T22:00:15.208Z,24.70
2018-01-26T22:02:44.484Z,24.33
2018-01-26T22:05:16.020Z,23.20
2018-01-26T22:07:44.685Z,24.00
2018-01-26T22:10:12.179Z,25.83
2018-01-26T22:12:40.640Z,33.30
2018-01-26T22:15:08.303Z,23.90
2018-01-26T22:17:35.789Z,24.30
2018-01-26T22:20:03.435Z,28.80
2018-01-26T22:22:31.751Z,24.57
2018-01-26T22:25:00.619Z,23.50
2018-01-26T22:27:28.176Z,23.70
2018-01-26T22:29:56.547Z,23.20
2018-01-26T22:32:24.095Z,22.27
2018-01-26T22:34:52.643Z,23.77
2018-01-26T22:37:21.264Z,24.37
2018-01-26T22:39:49.623Z,24.37
2018-01-26T22:42:17.442Z,24.20
2018-01-26T22:44:45.155Z,24.10
2018-01-26T22:47:12.729Z,24.00
2018-01-26T22:49:40.403Z,21.70
2018-01-26T22:52:07.984Z,23.30
2018-01-26T22:54:35.611Z,22.13
2018-01-26T22:57:03.075Z,21.57
2018-01-26T22:59:31.224Z,23.33
2018-01-26T23:01:58.984Z,23.47
2018-01-26T23:04:26.817Z,23.57
2018-01-26T23:06:55.089Z,23.10
2018-01-26T23:09:23.746Z,23.70
2018-01-26T23:11:52.155Z,23.30
2018-01-26T23:14:19.665Z,22.60
2018-01-26T23:16:47.732Z,23.20
2018-01-26T23:19:15.206Z,23.83
2018-01-26T23:21:42.818Z,23.60
2018-01-26T23:24:11.094Z,24.30
2018-01-26T23:26:39.334Z,22.17
2018-01-26T23:29:06.925Z,23.50
2018-01-26T23:31:34.477Z,21.77
2018-01-26T23:34:03.238Z,23.20
2018-01-26T23:36:30.781Z,24.30
2018-01-26T23:38:58.431Z,24.33
2018-01-26T23:41:25.914Z,24.57
2018-01-26T23:43:53.462Z,23.60
2018-01-26T23:46:21.037Z,23.80
2018-01-26T23:48:49.053Z,23.43
2018-01-26T23:51:17.885Z,25.33
2018-01-26T23:53:45.530Z,24.50
2018-01-26T23:56:13.199Z,24.57
2018-01-26T23:58:40.660Z,23.97
